sensor_id;sensor_type;location;lat;lon;timestamp;P1;durP1;ratioP1;P2;durP2;ratioP2
22774;SDS011;11554;51.106;3.684;2023-07-31T00:00:00;18.50;;;6.10;;
22774;SDS011;11554;51.106;3.684;2023-07-31T00:05:00;21.10;;;6.40;;
22774;SDS011;11554;51.106;3.684;2023-07-31T00:10:00;21.10;;;6.40;;
22774;SDS011;11554;51.106;3.684;2023-07-31T00:15:00;19.40;;;6.50;;
22774;SDS011;11554;51.106;3.684;2023-07-31T00:20:00;19.40;;;6.50;;
22774;SDS011;11554;51.106;3.684;2023-07-31T00:25:00;21.30;;;6.90;;
22774;SDS011;11554;51.106;3.684;2023-07-31T00:30:00;21.30;;;6.90;;
22774;SDS011;11554;51.106;3.684;2023-07-31T00:35:00;20.20;;;6.80;;
22774;SDS011;11554;51.106;3.684;2023-07-31T00:40:00;20.20;;;6.80;;
22774;SDS011;11554;51.106;3.684;2023-07-31T00:45:00;18.10;;;6.40;;
22774;SDS011;11554;51.106;3.684;2023-07-31T00:50:00;18.10;;;6.40;;
22774;SDS011;11554;51.106;3.684;2023-07-31T00:55:00;20.20;;;6.70;;
22774;SDS011;11554;51.106;3.684;2023-07-31T01:00:00;20.20;;;6.70;;
22774;SDS011;11554;51.106;3.684;2023-07-31T01:05:01;21.40;;;6.00;;
22774;SDS011;11554;51.106;3.684;2023-07-31T01:10:04;21.40;;;6.00;;
22774;SDS011;11554;51.106;3.684;2023-07-31T01:15:04;16.50;;;6.40;;
22774;SDS011;11554;51.106;3.684;2023-07-31T01:20:02;16.50;;;6.40;;
22774;SDS011;11554;51.106;3.684;2023-07-31T01:25:11;17.70;;;6.10;;
22774;SDS011;11554;51.106;3.684;2023-07-31T01:30:08;17.70;;;6.10;;
22774;SDS011;11554;51.106;3.684;2023-07-31T01:35:00;16.10;;;5.80;;
22774;SDS011;11554;51.106;3.684;2023-07-31T01:40:00;16.10;;;5.80;;
22774;SDS011;11554;51.106;3.684;2023-07-31T01:45:00;18.50;;;5.80;;
22774;SDS011;11554;51.106;3.684;2023-07-31T01:50:00;18.50;;;5.80;;
22774;SDS011;11554;51.106;3.684;2023-07-31T01:55:00;16.70;;;6.10;;
22774;SDS011;11554;51.106;3.684;2023-07-31T02:00:00;16.70;;;6.10;;
22774;SDS011;11554;51.106;3.684;2023-07-31T02:05:00;16.70;;;6.10;;
22774;SDS011;11554;51.106;3.684;2023-07-31T02:10:00;18.20;;;5.60;;
22774;SDS011;11554;51.106;3.684;2023-07-31T02:15:00;18.20;;;5.60;;
22774;SDS011;11554;51.106;3.684;2023-07-31T02:20:00;19.80;;;5.60;;
22774;SDS011;11554;51.106;3.684;2023-07-31T02:25:00;19.80;;;5.60;;
22774;SDS011;11554;51.106;3.684;2023-07-31T02:30:00;16.70;;;5.20;;
22774;SDS011;11554;51.106;3.684;2023-07-31T02:35:00;16.70;;;5.20;;
22774;SDS011;11554;51.106;3.684;2023-07-31T02:40:00;13.80;;;4.80;;
22774;SDS011;11554;51.106;3.684;2023-07-31T02:45:01;13.80;;;4.80;;
22774;SDS011;11554;51.106;3.684;2023-07-31T02:50:00;17.10;;;5.20;;
22774;SDS011;11554;51.106;3.684;2023-07-31T02:55:00;17.10;;;5.20;;
22774;SDS011;11554;51.106;3.684;2023-07-31T03:00:00;15.50;;;5.00;;
22774;SDS011;11554;51.106;3.684;2023-07-31T03:05:00;15.50;;;5.00;;
22774;SDS011;11554;51.106;3.684;2023-07-31T03:10:00;14.30;;;4.70;;
22774;SDS011;11554;51.106;3.684;2023-07-31T03:15:00;14.30;;;4.70;;
22774;SDS011;11554;51.106;3.684;2023-07-31T03:20:00;15.90;;;4.80;;
22774;SDS011;11554;51.106;3.684;2023-07-31T03:25:00;15.90;;;4.80;;
22774;SDS011;11554;51.106;3.684;2023-07-31T03:30:02;14.40;;;4.80;;
22774;SDS011;11554;51.106;3.684;2023-07-31T03:35:00;14.40;;;4.80;;
22774;SDS011;11554;51.106;3.684;2023-07-31T03:40:00;16.10;;;5.40;;
22774;SDS011;11554;51.106;3.684;2023-07-31T03:45:00;16.10;;;5.40;;
22774;SDS011;11554;51.106;3.684;2023-07-31T03:50:00;15.00;;;5.00;;
22774;SDS011;11554;51.106;3.684;2023-07-31T03:55:00;15.00;;;5.00;;
22774;SDS011;11554;51.106;3.684;2023-07-31T04:00:00;14.40;;;4.90;;
22774;SDS011;11554;51.106;3.684;2023-07-31T04:05:00;14.40;;;4.90;;
22774;SDS011;11554;51.106;3.684;2023-07-31T04:10:00;14.20;;;5.00;;
22774;SDS011;11554;51.106;3.684;2023-07-31T04:15:00;14.20;;;5.00;;
22774;SDS011;11554;51.106;3.684;2023-07-31T04:20:00;14.40;;;5.10;;
22774;SDS011;11554;51.106;3.684;2023-07-31T04:25:00;14.40;;;5.10;;
22774;SDS011;11554;51.106;3.684;2023-07-31T04:30:00;12.60;;;5.40;;
22774;SDS011;11554;51.106;3.684;2023-07-31T04:35:00;12.60;;;5.40;;
22774;SDS011;11554;51.106;3.684;2023-07-31T04:40:00;13.20;;;5.30;;
22774;SDS011;11554;51.106;3.684;2023-07-31T04:45:00;13.20;;;5.30;;
22774;SDS011;11554;51.106;3.684;2023-07-31T04:50:00;10.40;;;4.40;;
22774;SDS011;11554;51.106;3.684;2023-07-31T04:55:00;10.40;;;4.40;;
22774;SDS011;11554;51.106;3.684;2023-07-31T05:00:00;10.70;;;4.30;;
22774;SDS011;11554;51.106;3.684;2023-07-31T05:05:00;10.70;;;4.30;;
22774;SDS011;11554;51.106;3.684;2023-07-31T05:10:00;8.60;;;4.00;;
22774;SDS011;11554;51.106;3.684;2023-07-31T05:15:00;8.60;;;4.00;;
22774;SDS011;11554;51.106;3.684;2023-07-31T05:20:00;8.90;;;4.00;;
22774;SDS011;11554;51.106;3.684;2023-07-31T05:25:00;8.90;;;4.00;;
22774;SDS011;11554;51.106;3.684;2023-07-31T05:30:00;9.70;;;3.60;;
22774;SDS011;11554;51.106;3.684;2023-07-31T05:35:00;9.70;;;3.60;;
22774;SDS011;11554;51.106;3.684;2023-07-31T05:40:00;9.20;;;3.90;;
22774;SDS011;11554;51.106;3.684;2023-07-31T05:45:00;9.20;;;3.90;;
22774;SDS011;11554;51.106;3.684;2023-07-31T05:50:00;10.00;;;4.20;;
22774;SDS011;11554;51.106;3.684;2023-07-31T05:55:00;10.00;;;4.20;;
22774;SDS011;11554;51.106;3.684;2023-07-31T06:00:00;11.40;;;4.40;;
22774;SDS011;11554;51.106;3.684;2023-07-31T06:05:00;11.40;;;4.40;;
22774;SDS011;11554;51.106;3.684;2023-07-31T06:10:00;8.10;;;3.90;;
22774;SDS011;11554;51.106;3.684;2023-07-31T06:15:01;8.10;;;3.90;;
22774;SDS011;11554;51.106;3.684;2023-07-31T06:20:00;11.70;;;3.90;;
22774;SDS011;11554;51.106;3.684;2023-07-31T06:25:00;11.70;;;3.90;;
22774;SDS011;11554;51.106;3.684;2023-07-31T06:30:00;10.30;;;4.10;;
22774;SDS011;11554;51.106;3.684;2023-07-31T06:35:00;10.30;;;4.10;;
22774;SDS011;11554;51.106;3.684;2023-07-31T06:40:00;11.00;;;4.50;;
22774;SDS011;11554;51.106;3.684;2023-07-31T06:45:00;11.00;;;4.50;;
22774;SDS011;11554;51.106;3.684;2023-07-31T06:50:00;11.40;;;4.10;;
22774;SDS011;11554;51.106;3.684;2023-07-31T06:55:01;11.40;;;4.10;;
22774;SDS011;11554;51.106;3.684;2023-07-31T07:00:00;9.80;;;4.50;;
22774;SDS011;11554;51.106;3.684;2023-07-31T07:05:00;9.80;;;4.50;;
22774;SDS011;11554;51.106;3.684;2023-07-31T07:10:00;13.10;;;4.20;;
22774;SDS011;11554;51.106;3.684;2023-07-31T07:15:00;13.10;;;4.20;;
22774;SDS011;11554;51.106;3.684;2023-07-31T07:20:00;8.60;;;3.50;;
22774;SDS011;11554;51.106;3.684;2023-07-31T07:25:00;8.60;;;3.50;;
22774;SDS011;11554;51.106;3.684;2023-07-31T07:30:00;8.30;;;3.50;;
22774;SDS011;11554;51.106;3.684;2023-07-31T07:35:00;8.30;;;3.50;;
22774;SDS011;11554;51.106;3.684;2023-07-31T07:40:00;6.60;;;3.20;;
22774;SDS011;11554;51.106;3.684;2023-07-31T07:45:00;6.60;;;3.20;;
22774;SDS011;11554;51.106;3.684;2023-07-31T07:50:00;6.80;;;3.20;;
22774;SDS011;11554;51.106;3.684;2023-07-31T07:55:00;6.80;;;3.20;;
22774;SDS011;11554;51.106;3.684;2023-07-31T08:00:00;7.20;;;3.20;;
22774;SDS011;11554;51.106;3.684;2023-07-31T08:05:00;7.20;;;3.20;;
22774;SDS011;11554;51.106;3.684;2023-07-31T08:10:00;5.70;;;2.70;;
22774;SDS011;11554;51.106;3.684;2023-07-31T08:15:00;5.70;;;2.70;;
22774;SDS011;11554;51.106;3.684;2023-07-31T08:20:00;6.00;;;2.30;;
22774;SDS011;11554;51.106;3.684;2023-07-31T08:25:00;6.00;;;2.30;;
22774;SDS011;11554;51.106;3.684;2023-07-31T08:30:00;6.10;;;2.40;;
22774;SDS011;11554;51.106;3.684;2023-07-31T08:35:00;6.10;;;2.40;;
22774;SDS011;11554;51.106;3.684;2023-07-31T08:40:00;5.00;;;2.20;;
22774;SDS011;11554;51.106;3.684;2023-07-31T08:45:01;5.00;;;2.20;;
22774;SDS011;11554;51.106;3.684;2023-07-31T08:50:01;3.80;;;2.00;;
22774;SDS011;11554;51.106;3.684;2023-07-31T08:55:00;3.80;;;2.00;;
22774;SDS011;11554;51.106;3.684;2023-07-31T09:00:00;5.50;;;2.30;;
22774;SDS011;11554;51.106;3.684;2023-07-31T09:05:01;5.50;;;2.30;;
22774;SDS011;11554;51.106;3.684;2023-07-31T09:10:00;5.60;;;2.30;;
22774;SDS011;11554;51.106;3.684;2023-07-31T09:15:00;5.60;;;2.30;;
22774;SDS011;11554;51.106;3.684;2023-07-31T09:20:14;4.50;;;2.00;;
22774;SDS011;11554;51.106;3.684;2023-07-31T09:25:14;4.50;;;2.00;;
22774;SDS011;11554;51.106;3.684;2023-07-31T09:30:00;5.30;;;2.30;;
22774;SDS011;11554;51.106;3.684;2023-07-31T09:35:00;5.30;;;2.30;;
22774;SDS011;11554;51.106;3.684;2023-07-31T09:40:00;6.80;;;2.80;;
22774;SDS011;11554;51.106;3.684;2023-07-31T09:45:07;6.80;;;2.80;;
22774;SDS011;11554;51.106;3.684;2023-07-31T09:50:00;6.40;;;2.80;;
22774;SDS011;11554;51.106;3.684;2023-07-31T09:55:00;6.40;;;2.80;;
22774;SDS011;11554;51.106;3.684;2023-07-31T10:00:00;6.00;;;3.10;;
22774;SDS011;11554;51.106;3.684;2023-07-31T10:05:03;6.00;;;3.10;;
22774;SDS011;11554;51.106;3.684;2023-07-31T10:10:01;7.50;;;3.30;;
22774;SDS011;11554;51.106;3.684;2023-07-31T10:15:00;7.50;;;3.30;;
22774;SDS011;11554;51.106;3.684;2023-07-31T10:20:02;5.80;;;3.30;;
22774;SDS011;11554;51.106;3.684;2023-07-31T10:25:00;5.80;;;3.30;;
22774;SDS011;11554;51.106;3.684;2023-07-31T10:30:02;7.00;;;2.80;;
22774;SDS011;11554;51.106;3.684;2023-07-31T10:35:01;7.00;;;2.80;;
22774;SDS011;11554;51.106;3.684;2023-07-31T10:40:02;4.80;;;2.70;;
22774;SDS011;11554;51.106;3.684;2023-07-31T10:45:02;4.80;;;2.70;;
22774;SDS011;11554;51.106;3.684;2023-07-31T10:50:16;7.20;;;3.30;;
22774;SDS011;11554;51.106;3.684;2023-07-31T10:55:14;7.20;;;3.30;;
22774;SDS011;11554;51.106;3.684;2023-07-31T11:00:18;7.60;;;3.50;;
22774;SDS011;11554;51.106;3.684;2023-07-31T11:05:07;7.60;;;3.50;;
22774;SDS011;11554;51.106;3.684;2023-07-31T11:10:00;7.70;;;3.90;;
22774;SDS011;11554;51.106;3.684;2023-07-31T11:15:00;7.70;;;3.90;;
22774;SDS011;11554;51.106;3.684;2023-07-31T11:20:00;6.50;;;3.00;;
22774;SDS011;11554;51.106;3.684;2023-07-31T11:25:01;6.50;;;3.00;;
22774;SDS011;11554;51.106;3.684;2023-07-31T11:30:00;7.00;;;3.60;;
22774;SDS011;11554;51.106;3.684;2023-07-31T11:35:00;7.00;;;3.60;;
22774;SDS011;11554;51.106;3.684;2023-07-31T11:40:00;6.40;;;3.00;;
22774;SDS011;11554;51.106;3.684;2023-07-31T11:45:02;6.40;;;3.00;;
22774;SDS011;11554;51.106;3.684;2023-07-31T11:50:00;6.40;;;3.10;;
22774;SDS011;11554;51.106;3.684;2023-07-31T11:55:00;6.40;;;3.10;;
22774;SDS011;11554;51.106;3.684;2023-07-31T12:00:01;6.60;;;3.30;;
22774;SDS011;11554;51.106;3.684;2023-07-31T12:05:01;6.60;;;3.30;;
22774;SDS011;11554;51.106;3.684;2023-07-31T12:10:00;5.80;;;3.10;;
22774;SDS011;11554;51.106;3.684;2023-07-31T12:15:00;5.80;;;3.10;;
22774;SDS011;11554;51.106;3.684;2023-07-31T12:20:00;7.60;;;3.30;;
22774;SDS011;11554;51.106;3.684;2023-07-31T12:25:00;7.60;;;3.30;;
22774;SDS011;11554;51.106;3.684;2023-07-31T12:30:00;6.10;;;3.80;;
22774;SDS011;11554;51.106;3.684;2023-07-31T12:35:00;6.10;;;3.80;;
22774;SDS011;11554;51.106;3.684;2023-07-31T12:40:00;8.20;;;4.40;;
22774;SDS011;11554;51.106;3.684;2023-07-31T12:45:00;8.20;;;4.40;;
22774;SDS011;11554;51.106;3.684;2023-07-31T12:50:00;7.00;;;4.10;;
22774;SDS011;11554;51.106;3.684;2023-07-31T12:55:00;7.00;;;4.10;;
22774;SDS011;11554;51.106;3.684;2023-07-31T13:00:00;8.30;;;4.10;;
22774;SDS011;11554;51.106;3.684;2023-07-31T13:05:00;8.30;;;4.10;;
22774;SDS011;11554;51.106;3.684;2023-07-31T13:10:00;6.00;;;3.50;;
22774;SDS011;11554;51.106;3.684;2023-07-31T13:15:00;6.00;;;3.50;;
22774;SDS011;11554;51.106;3.684;2023-07-31T13:20:00;5.30;;;2.60;;
22774;SDS011;11554;51.106;3.684;2023-07-31T13:25:00;5.30;;;2.60;;
22774;SDS011;11554;51.106;3.684;2023-07-31T13:30:00;5.40;;;2.10;;
22774;SDS011;11554;51.106;3.684;2023-07-31T13:35:00;5.40;;;2.10;;
22774;SDS011;11554;51.106;3.684;2023-07-31T13:40:00;5.00;;;1.90;;
22774;SDS011;11554;51.106;3.684;2023-07-31T13:45:00;5.00;;;1.90;;
22774;SDS011;11554;51.106;3.684;2023-07-31T13:50:00;4.30;;;1.30;;
22774;SDS011;11554;51.106;3.684;2023-07-31T13:55:00;4.30;;;1.30;;
22774;SDS011;11554;51.106;3.684;2023-07-31T14:00:00;3.30;;;1.40;;
22774;SDS011;11554;51.106;3.684;2023-07-31T14:05:00;3.30;;;1.40;;
22774;SDS011;11554;51.106;3.684;2023-07-31T14:10:00;3.00;;;1.60;;
22774;SDS011;11554;51.106;3.684;2023-07-31T14:15:00;3.00;;;1.60;;
22774;SDS011;11554;51.106;3.684;2023-07-31T14:20:00;4.00;;;2.00;;
22774;SDS011;11554;51.106;3.684;2023-07-31T14:25:01;4.00;;;2.00;;
22774;SDS011;11554;51.106;3.684;2023-07-31T14:30:00;3.80;;;1.60;;
22774;SDS011;11554;51.106;3.684;2023-07-31T14:35:00;3.80;;;1.60;;
22774;SDS011;11554;51.106;3.684;2023-07-31T14:40:00;4.80;;;1.90;;
22774;SDS011;11554;51.106;3.684;2023-07-31T14:45:00;4.80;;;1.90;;
22774;SDS011;11554;51.106;3.684;2023-07-31T14:50:00;4.40;;;1.60;;
22774;SDS011;11554;51.106;3.684;2023-07-31T14:55:00;4.40;;;1.60;;
22774;SDS011;11554;51.106;3.684;2023-07-31T15:00:00;3.80;;;1.70;;
22774;SDS011;11554;51.106;3.684;2023-07-31T15:05:00;3.80;;;1.70;;
22774;SDS011;11554;51.106;3.684;2023-07-31T15:10:01;3.00;;;1.50;;
22774;SDS011;11554;51.106;3.684;2023-07-31T15:15:00;3.00;;;1.50;;
22774;SDS011;11554;51.106;3.684;2023-07-31T15:20:00;3.10;;;1.00;;
22774;SDS011;11554;51.106;3.684;2023-07-31T15:25:00;3.10;;;1.00;;
22774;SDS011;11554;51.106;3.684;2023-07-31T15:30:00;4.40;;;1.00;;
22774;SDS011;11554;51.106;3.684;2023-07-31T15:35:00;4.40;;;1.00;;
22774;SDS011;11554;51.106;3.684;2023-07-31T15:40:00;2.00;;;1.00;;
22774;SDS011;11554;51.106;3.684;2023-07-31T15:45:00;2.00;;;1.00;;
22774;SDS011;11554;51.106;3.684;2023-07-31T15:50:00;1.70;;;1.00;;
22774;SDS011;11554;51.106;3.684;2023-07-31T15:55:00;1.70;;;1.00;;
22774;SDS011;11554;51.106;3.684;2023-07-31T16:00:03;3.10;;;0.80;;
22774;SDS011;11554;51.106;3.684;2023-07-31T16:05:00;3.10;;;0.80;;
22774;SDS011;11554;51.106;3.684;2023-07-31T16:10:00;3.80;;;0.90;;
22774;SDS011;11554;51.106;3.684;2023-07-31T16:15:00;3.80;;;0.90;;
22774;SDS011;11554;51.106;3.684;2023-07-31T16:20:00;3.10;;;0.80;;
22774;SDS011;11554;51.106;3.684;2023-07-31T16:25:00;3.10;;;0.80;;
22774;SDS011;11554;51.106;3.684;2023-07-31T16:30:00;1.80;;;0.70;;
22774;SDS011;11554;51.106;3.684;2023-07-31T16:35:00;1.80;;;0.70;;
22774;SDS011;11554;51.106;3.684;2023-07-31T16:40:00;3.60;;;0.60;;
22774;SDS011;11554;51.106;3.684;2023-07-31T16:45:00;3.60;;;0.60;;
22774;SDS011;11554;51.106;3.684;2023-07-31T16:50:00;2.60;;;0.60;;
22774;SDS011;11554;51.106;3.684;2023-07-31T16:55:00;2.60;;;0.60;;
22774;SDS011;11554;51.106;3.684;2023-07-31T17:00:00;3.30;;;1.00;;
22774;SDS011;11554;51.106;3.684;2023-07-31T17:05:00;3.30;;;1.00;;
22774;SDS011;11554;51.106;3.684;2023-07-31T17:10:00;3.20;;;0.60;;
22774;SDS011;11554;51.106;3.684;2023-07-31T17:15:00;3.20;;;0.60;;
22774;SDS011;11554;51.106;3.684;2023-07-31T17:20:00;0.90;;;0.40;;
22774;SDS011;11554;51.106;3.684;2023-07-31T17:25:00;0.90;;;0.40;;
22774;SDS011;11554;51.106;3.684;2023-07-31T17:30:00;2.40;;;0.40;;
22774;SDS011;11554;51.106;3.684;2023-07-31T17:35:00;2.40;;;0.40;;
22774;SDS011;11554;51.106;3.684;2023-07-31T17:40:00;1.50;;;0.60;;
22774;SDS011;11554;51.106;3.684;2023-07-31T17:45:00;1.50;;;0.60;;
22774;SDS011;11554;51.106;3.684;2023-07-31T17:50:00;1.80;;;0.40;;
22774;SDS011;11554;51.106;3.684;2023-07-31T17:55:00;1.80;;;0.40;;
22774;SDS011;11554;51.106;3.684;2023-07-31T18:00:00;0.80;;;0.40;;
22774;SDS011;11554;51.106;3.684;2023-07-31T18:05:00;0.80;;;0.40;;
22774;SDS011;11554;51.106;3.684;2023-07-31T18:10:00;1.30;;;0.70;;
22774;SDS011;11554;51.106;3.684;2023-07-31T18:15:00;1.30;;;0.70;;
22774;SDS011;11554;51.106;3.684;2023-07-31T18:20:00;1.40;;;0.80;;
22774;SDS011;11554;51.106;3.684;2023-07-31T18:25:00;1.40;;;0.80;;
22774;SDS011;11554;51.106;3.684;2023-07-31T18:30:00;1.70;;;1.00;;
22774;SDS011;11554;51.106;3.684;2023-07-31T18:35:00;1.70;;;1.00;;
22774;SDS011;11554;51.106;3.684;2023-07-31T18:40:00;2.10;;;0.70;;
22774;SDS011;11554;51.106;3.684;2023-07-31T18:45:00;2.10;;;0.70;;
22774;SDS011;11554;51.106;3.684;2023-07-31T18:50:00;1.30;;;0.70;;
22774;SDS011;11554;51.106;3.684;2023-07-31T18:55:00;1.30;;;0.70;;
22774;SDS011;11554;51.106;3.684;2023-07-31T19:00:00;3.40;;;1.10;;
22774;SDS011;11554;51.106;3.684;2023-07-31T19:05:00;3.40;;;1.10;;
22774;SDS011;11554;51.106;3.684;2023-07-31T19:10:00;2.10;;;1.00;;
22774;SDS011;11554;51.106;3.684;2023-07-31T19:15:00;2.10;;;1.00;;
22774;SDS011;11554;51.106;3.684;2023-07-31T19:20:00;2.80;;;1.30;;
22774;SDS011;11554;51.106;3.684;2023-07-31T19:25:00;2.80;;;1.30;;
22774;SDS011;11554;51.106;3.684;2023-07-31T19:30:00;2.60;;;1.20;;
22774;SDS011;11554;51.106;3.684;2023-07-31T19:35:00;2.60;;;1.20;;
22774;SDS011;11554;51.106;3.684;2023-07-31T19:40:00;3.50;;;1.30;;
22774;SDS011;11554;51.106;3.684;2023-07-31T19:45:00;3.50;;;1.30;;
22774;SDS011;11554;51.106;3.684;2023-07-31T19:50:00;3.40;;;1.40;;
22774;SDS011;11554;51.106;3.684;2023-07-31T19:55:00;3.40;;;1.40;;
22774;SDS011;11554;51.106;3.684;2023-07-31T20:00:00;3.70;;;1.50;;
22774;SDS011;11554;51.106;3.684;2023-07-31T20:05:00;3.70;;;1.50;;
22774;SDS011;11554;51.106;3.684;2023-07-31T20:10:00;2.30;;;1.40;;
22774;SDS011;11554;51.106;3.684;2023-07-31T20:15:03;2.30;;;1.40;;
22774;SDS011;11554;51.106;3.684;2023-07-31T20:20:00;3.10;;;1.20;;
22774;SDS011;11554;51.106;3.684;2023-07-31T20:25:00;3.10;;;1.20;;
22774;SDS011;11554;51.106;3.684;2023-07-31T20:30:00;4.30;;;1.70;;
22774;SDS011;11554;51.106;3.684;2023-07-31T20:35:00;4.30;;;1.70;;
22774;SDS011;11554;51.106;3.684;2023-07-31T20:40:05;4.00;;;1.40;;
22774;SDS011;11554;51.106;3.684;2023-07-31T20:45:00;4.00;;;1.40;;
22774;SDS011;11554;51.106;3.684;2023-07-31T20:50:00;5.00;;;1.50;;
22774;SDS011;11554;51.106;3.684;2023-07-31T20:55:00;5.00;;;1.50;;
22774;SDS011;11554;51.106;3.684;2023-07-31T21:00:00;6.40;;;1.80;;
22774;SDS011;11554;51.106;3.684;2023-07-31T21:05:00;6.40;;;1.80;;
22774;SDS011;11554;51.106;3.684;2023-07-31T21:10:00;4.70;;;1.50;;
22774;SDS011;11554;51.106;3.684;2023-07-31T21:15:00;4.70;;;1.50;;
22774;SDS011;11554;51.106;3.684;2023-07-31T21:20:00;4.00;;;1.80;;
22774;SDS011;11554;51.106;3.684;2023-07-31T21:25:00;4.00;;;1.80;;
22774;SDS011;11554;51.106;3.684;2023-07-31T21:30:00;6.30;;;2.20;;
22774;SDS011;11554;51.106;3.684;2023-07-31T21:35:00;6.30;;;2.20;;
22774;SDS011;11554;51.106;3.684;2023-07-31T21:40:00;7.20;;;1.90;;
22774;SDS011;11554;51.106;3.684;2023-07-31T21:45:00;7.20;;;1.90;;
22774;SDS011;11554;51.106;3.684;2023-07-31T21:50:00;5.90;;;2.20;;
22774;SDS011;11554;51.106;3.684;2023-07-31T21:55:00;5.90;;;2.20;;
22774;SDS011;11554;51.106;3.684;2023-07-31T22:00:00;5.30;;;2.20;;
22774;SDS011;11554;51.106;3.684;2023-07-31T22:05:00;5.30;;;2.20;;
22774;SDS011;11554;51.106;3.684;2023-07-31T22:10:00;5.10;;;2.00;;
22774;SDS011;11554;51.106;3.684;2023-07-31T22:15:00;5.10;;;2.00;;
22774;SDS011;11554;51.106;3.684;2023-07-31T22:20:00;5.60;;;2.10;;
22774;SDS011;11554;51.106;3.684;2023-07-31T22:25:00;5.60;;;2.10;;
22774;SDS011;11554;51.106;3.684;2023-07-31T22:30:00;7.00;;;2.60;;
22774;SDS011;11554;51.106;3.684;2023-07-31T22:35:00;7.00;;;2.60;;
22774;SDS011;11554;51.106;3.684;2023-07-31T22:40:00;5.80;;;2.70;;
22774;SDS011;11554;51.106;3.684;2023-07-31T22:45:00;5.80;;;2.70;;
22774;SDS011;11554;51.106;3.684;2023-07-31T22:50:00;6.00;;;3.00;;
22774;SDS011;11554;51.106;3.684;2023-07-31T22:55:00;6.00;;;3.00;;
22774;SDS011;11554;51.106;3.684;2023-07-31T23:00:00;6.70;;;2.80;;
22774;SDS011;11554;51.106;3.684;2023-07-31T23:05:00;6.70;;;2.80;;
22774;SDS011;11554;51.106;3.684;2023-07-31T23:10:00;8.00;;;3.90;;
22774;SDS011;11554;51.106;3.684;2023-07-31T23:15:00;8.00;;;3.90;;
22774;SDS011;11554;51.106;3.684;2023-07-31T23:20:00;9.30;;;4.90;;
22774;SDS011;11554;51.106;3.684;2023-07-31T23:25:00;9.30;;;4.90;;
22774;SDS011;11554;51.106;3.684;2023-07-31T23:30:00;9.60;;;4.90;;
22774;SDS011;11554;51.106;3.684;2023-07-31T23:35:00;9.60;;;4.90;;
22774;SDS011;11554;51.106;3.684;2023-07-31T23:40:00;10.60;;;5.20;;
22774;SDS011;11554;51.106;3.684;2023-07-31T23:45:00;10.60;;;5.20;;
22774;SDS011;11554;51.106;3.684;2023-07-31T23:50:00;11.30;;;6.20;;
22774;SDS011;11554;51.106;3.684;2023-07-31T23:55:00;11.30;;;6.20;;
